sensor_id;sensor_type;location;lat;lon;timestamp;temperature;humidity
56046;DHT22;41913;51.030;3.706;2022-08-19T00:01:44;21.40;99.90
56046;DHT22;41913;51.030;3.706;2022-08-19T00:04:13;21.20;99.90
56046;DHT22;41913;51.030;3.706;2022-08-19T00:06:40;21.10;99.90
56046;DHT22;41913;51.030;3.706;2022-08-19T00:09:09;20.90;99.90
56046;DHT22;41913;51.030;3.706;2022-08-19T00:11:35;20.80;99.90
56046;DHT22;41913;51.030;3.706;2022-08-19T00:14:04;20.80;99.90
56046;DHT22;41913;51.030;3.706;2022-08-19T00:16:32;20.80;99.90
56046;DHT22;41913;51.030;3.706;2022-08-19T00:18:59;20.80;99.90
56046;DHT22;41913;51.030;3.706;2022-08-19T00:21:25;20.80;99.90
56046;DHT22;41913;51.030;3.706;2022-08-19T00:23:53;20.70;99.90
56046;DHT22;41913;51.030;3.706;2022-08-19T00:26:19;20.70;99.90
56046;DHT22;41913;51.030;3.706;2022-08-19T00:28:44;20.60;99.90
56046;DHT22;41913;51.030;3.706;2022-08-19T00:31:10;20.50;99.90
56046;DHT22;41913;51.030;3.706;2022-08-19T00:33:36;20.30;99.90
56046;DHT22;41913;51.030;3.706;2022-08-19T00:36:05;20.30;99.90
56046;DHT22;41913;51.030;3.706;2022-08-19T00:38:32;20.10;99.90
56046;DHT22;41913;51.030;3.706;2022-08-19T00:40:58;20.00;99.90
56046;DHT22;41913;51.030;3.706;2022-08-19T00:43:26;20.10;99.90
56046;DHT22;41913;51.030;3.706;2022-08-19T00:45:52;20.20;99.90
56046;DHT22;41913;51.030;3.706;2022-08-19T00:48:19;20.20;99.90
56046;DHT22;41913;51.030;3.706;2022-08-19T00:50:48;20.10;99.90
56046;DHT22;41913;51.030;3.706;2022-08-19T00:53:17;20.20;99.90
56046;DHT22;41913;51.030;3.706;2022-08-19T00:55:49;19.90;99.90
56046;DHT22;41913;51.030;3.706;2022-08-19T00:58:18;19.90;99.90
56046;DHT22;41913;51.030;3.706;2022-08-19T01:00:46;19.90;99.90
56046;DHT22;41913;51.030;3.706;2022-08-19T01:03:15;19.90;99.90
56046;DHT22;41913;51.030;3.706;2022-08-19T01:05:44;19.90;99.90
56046;DHT22;41913;51.030;3.706;2022-08-19T01:08:10;19.70;99.90
56046;DHT22;41913;51.030;3.706;2022-08-19T01:10:43;19.70;99.90
56046;DHT22;41913;51.030;3.706;2022-08-19T01:13:10;19.80;99.90
56046;DHT22;41913;51.030;3.706;2022-08-19T01:15:43;20.00;99.90
56046;DHT22;41913;51.030;3.706;2022-08-19T01:18:12;20.00;99.90
56046;DHT22;41913;51.030;3.706;2022-08-19T01:20:39;19.90;99.90
56046;DHT22;41913;51.030;3.706;2022-08-19T01:23:06;19.80;99.90
56046;DHT22;41913;51.030;3.706;2022-08-19T01:25:42;19.80;99.90
56046;DHT22;41913;51.030;3.706;2022-08-19T01:28:25;19.70;99.90
56046;DHT22;41913;51.030;3.706;2022-08-19T01:30:53;19.60;99.90
56046;DHT22;41913;51.030;3.706;2022-08-19T01:33:20;19.70;99.90
56046;DHT22;41913;51.030;3.706;2022-08-19T01:35:46;19.70;99.90
56046;DHT22;41913;51.030;3.706;2022-08-19T01:38:25;19.60;99.90
56046;DHT22;41913;51.030;3.706;2022-08-19T01:40:51;19.70;99.90
56046;DHT22;41913;51.030;3.706;2022-08-19T01:43:18;19.40;99.90
56046;DHT22;41913;51.030;3.706;2022-08-19T01:45:45;19.20;99.90
56046;DHT22;41913;51.030;3.706;2022-08-19T01:48:13;19.10;99.90
56046;DHT22;41913;51.030;3.706;2022-08-19T01:50:40;19.20;99.90
56046;DHT22;41913;51.030;3.706;2022-08-19T01:53:10;19.20;99.90
56046;DHT22;41913;51.030;3.706;2022-08-19T01:55:38;19.10;99.90
56046;DHT22;41913;51.030;3.706;2022-08-19T01:58:06;19.00;99.90
56046;DHT22;41913;51.030;3.706;2022-08-19T02:00:35;19.00;99.90
56046;DHT22;41913;51.030;3.706;2022-08-19T02:03:00;19.00;99.90
56046;DHT22;41913;51.030;3.706;2022-08-19T02:05:26;19.10;99.90
56046;DHT22;41913;51.030;3.706;2022-08-19T02:07:52;19.10;99.90
56046;DHT22;41913;51.030;3.706;2022-08-19T02:10:21;19.10;99.90
56046;DHT22;41913;51.030;3.706;2022-08-19T02:12:47;19.10;99.90
56046;DHT22;41913;51.030;3.706;2022-08-19T02:15:14;19.20;99.90
56046;DHT22;41913;51.030;3.706;2022-08-19T02:17:42;19.10;99.90
56046;DHT22;41913;51.030;3.706;2022-08-19T02:20:08;19.10;99.90
56046;DHT22;41913;51.030;3.706;2022-08-19T02:22:34;19.10;99.90
56046;DHT22;41913;51.030;3.706;2022-08-19T02:25:02;19.30;99.90
56046;DHT22;41913;51.030;3.706;2022-08-19T02:27:29;19.10;99.90
56046;DHT22;41913;51.030;3.706;2022-08-19T02:29:57;19.10;99.90
56046;DHT22;41913;51.030;3.706;2022-08-19T02:32:24;18.90;99.90
56046;DHT22;41913;51.030;3.706;2022-08-19T02:34:51;18.80;99.90
56046;DHT22;41913;51.030;3.706;2022-08-19T02:37:17;18.80;99.90
56046;DHT22;41913;51.030;3.706;2022-08-19T02:40:04;18.70;99.90
56046;DHT22;41913;51.030;3.706;2022-08-19T02:42:29;18.70;99.90
56046;DHT22;41913;51.030;3.706;2022-08-19T02:44:56;18.80;99.90
56046;DHT22;41913;51.030;3.706;2022-08-19T02:47:22;18.70;99.90
56046;DHT22;41913;51.030;3.706;2022-08-19T02:49:50;18.60;99.90
56046;DHT22;41913;51.030;3.706;2022-08-19T02:52:16;18.70;99.90
56046;DHT22;41913;51.030;3.706;2022-08-19T02:54:42;18.50;99.90
56046;DHT22;41913;51.030;3.706;2022-08-19T02:57:09;18.50;99.90
56046;DHT22;41913;51.030;3.706;2022-08-19T02:59:34;18.50;99.90
56046;DHT22;41913;51.030;3.706;2022-08-19T03:02:00;18.40;99.90
56046;DHT22;41913;51.030;3.706;2022-08-19T03:04:26;18.40;99.90
56046;DHT22;41913;51.030;3.706;2022-08-19T03:06:52;18.50;99.90
56046;DHT22;41913;51.030;3.706;2022-08-19T03:09:19;18.50;99.90
56046;DHT22;41913;51.030;3.706;2022-08-19T03:11:45;18.60;99.90
56046;DHT22;41913;51.030;3.706;2022-08-19T03:14:12;18.70;99.90
56046;DHT22;41913;51.030;3.706;2022-08-19T03:16:50;18.70;99.90
56046;DHT22;41913;51.030;3.706;2022-08-19T03:19:19;18.70;99.90
56046;DHT22;41913;51.030;3.706;2022-08-19T03:21:46;18.70;99.90
56046;DHT22;41913;51.030;3.706;2022-08-19T03:24:14;18.70;99.90
56046;DHT22;41913;51.030;3.706;2022-08-19T03:26:42;18.60;99.90
56046;DHT22;41913;51.030;3.706;2022-08-19T03:29:09;18.60;99.90
56046;DHT22;41913;51.030;3.706;2022-08-19T03:31:37;18.30;99.90
56046;DHT22;41913;51.030;3.706;2022-08-19T03:34:04;18.30;99.90
56046;DHT22;41913;51.030;3.706;2022-08-19T03:36:30;18.50;99.90
56046;DHT22;41913;51.030;3.706;2022-08-19T03:39:00;18.40;99.90
56046;DHT22;41913;51.030;3.706;2022-08-19T03:41:32;18.50;99.90
56046;DHT22;41913;51.030;3.706;2022-08-19T03:43:59;18.50;99.90
56046;DHT22;41913;51.030;3.706;2022-08-19T03:46:30;18.60;99.90
56046;DHT22;41913;51.030;3.706;2022-08-19T03:48:58;18.90;99.90
56046;DHT22;41913;51.030;3.706;2022-08-19T03:51:31;19.00;99.90
56046;DHT22;41913;51.030;3.706;2022-08-19T03:53:59;19.00;99.90
56046;DHT22;41913;51.030;3.706;2022-08-19T03:56:26;19.00;99.90
56046;DHT22;41913;51.030;3.706;2022-08-19T03:58:53;18.80;99.90
56046;DHT22;41913;51.030;3.706;2022-08-19T04:01:22;18.80;99.90
56046;DHT22;41913;51.030;3.706;2022-08-19T04:03:49;18.70;99.90
56046;DHT22;41913;51.030;3.706;2022-08-19T04:06:21;18.70;99.90
56046;DHT22;41913;51.030;3.706;2022-08-19T04:08:51;18.80;99.90
56046;DHT22;41913;51.030;3.706;2022-08-19T04:11:21;18.60;99.90
56046;DHT22;41913;51.030;3.706;2022-08-19T04:13:49;18.60;99.90
56046;DHT22;41913;51.030;3.706;2022-08-19T04:16:17;18.30;99.90
56046;DHT22;41913;51.030;3.706;2022-08-19T04:18:44;18.40;99.90
56046;DHT22;41913;51.030;3.706;2022-08-19T04:21:22;18.30;99.90
56046;DHT22;41913;51.030;3.706;2022-08-19T04:23:50;18.30;99.90
56046;DHT22;41913;51.030;3.706;2022-08-19T04:26:22;18.30;99.90
56046;DHT22;41913;51.030;3.706;2022-08-19T04:28:48;18.40;99.90
56046;DHT22;41913;51.030;3.706;2022-08-19T04:31:22;18.30;99.90
56046;DHT22;41913;51.030;3.706;2022-08-19T04:33:53;18.50;99.90
56046;DHT22;41913;51.030;3.706;2022-08-19T04:36:25;18.50;99.90
56046;DHT22;41913;51.030;3.706;2022-08-19T04:38:56;18.50;99.90
56046;DHT22;41913;51.030;3.706;2022-08-19T04:41:23;18.30;99.90
56046;DHT22;41913;51.030;3.706;2022-08-19T04:44:09;18.30;99.90
56046;DHT22;41913;51.030;3.706;2022-08-19T04:46:36;18.10;99.90
56046;DHT22;41913;51.030;3.706;2022-08-19T04:49:03;18.20;99.90
56046;DHT22;41913;51.030;3.706;2022-08-19T04:51:31;18.20;99.90
56046;DHT22;41913;51.030;3.706;2022-08-19T04:53:58;18.20;99.90
56046;DHT22;41913;51.030;3.706;2022-08-19T04:56:26;18.30;99.90
56046;DHT22;41913;51.030;3.706;2022-08-19T04:58:53;18.20;99.90
56046;DHT22;41913;51.030;3.706;2022-08-19T05:01:27;18.30;99.90
56046;DHT22;41913;51.030;3.706;2022-08-19T05:03:54;18.40;99.90
56046;DHT22;41913;51.030;3.706;2022-08-19T05:06:21;18.40;99.90
56046;DHT22;41913;51.030;3.706;2022-08-19T05:08:49;18.40;99.90
56046;DHT22;41913;51.030;3.706;2022-08-19T05:11:16;18.40;99.90
56046;DHT22;41913;51.030;3.706;2022-08-19T05:13:43;18.50;99.90
56046;DHT22;41913;51.030;3.706;2022-08-19T05:16:12;18.70;99.90
56046;DHT22;41913;51.030;3.706;2022-08-19T05:18:40;18.80;99.90
56046;DHT22;41913;51.030;3.706;2022-08-19T05:21:25;18.90;99.90
56046;DHT22;41913;51.030;3.706;2022-08-19T05:24:09;18.90;99.90
56046;DHT22;41913;51.030;3.706;2022-08-19T05:26:40;18.90;99.90
56046;DHT22;41913;51.030;3.706;2022-08-19T05:29:07;19.00;99.90
56046;DHT22;41913;51.030;3.706;2022-08-19T05:31:35;19.00;99.90
56046;DHT22;41913;51.030;3.706;2022-08-19T05:34:02;19.20;99.90
56046;DHT22;41913;51.030;3.706;2022-08-19T05:36:36;19.40;99.90
56046;DHT22;41913;51.030;3.706;2022-08-19T05:39:03;19.40;99.90
56046;DHT22;41913;51.030;3.706;2022-08-19T05:41:29;19.40;99.90
56046;DHT22;41913;51.030;3.706;2022-08-19T05:44:03;19.40;99.90
56046;DHT22;41913;51.030;3.706;2022-08-19T05:46:35;19.30;99.90
56046;DHT22;41913;51.030;3.706;2022-08-19T05:49:06;19.30;99.90
56046;DHT22;41913;51.030;3.706;2022-08-19T05:51:34;19.40;99.90
56046;DHT22;41913;51.030;3.706;2022-08-19T05:54:04;19.60;99.90
56046;DHT22;41913;51.030;3.706;2022-08-19T05:56:31;19.70;99.90
56046;DHT22;41913;51.030;3.706;2022-08-19T05:58:58;19.80;99.90
56046;DHT22;41913;51.030;3.706;2022-08-19T06:01:25;19.90;99.90
56046;DHT22;41913;51.030;3.706;2022-08-19T06:03:51;20.00;99.90
56046;DHT22;41913;51.030;3.706;2022-08-19T06:06:18;20.10;99.90
56046;DHT22;41913;51.030;3.706;2022-08-19T06:08:45;20.00;99.90
56046;DHT22;41913;51.030;3.706;2022-08-19T06:13:52;20.30;99.90
56046;DHT22;41913;51.030;3.706;2022-08-19T06:16:19;20.40;99.90
56046;DHT22;41913;51.030;3.706;2022-08-19T06:18:50;20.40;99.90
56046;DHT22;41913;51.030;3.706;2022-08-19T06:21:22;20.60;99.90
56046;DHT22;41913;51.030;3.706;2022-08-19T06:23:49;20.60;99.90
56046;DHT22;41913;51.030;3.706;2022-08-19T06:26:17;20.70;99.90
56046;DHT22;41913;51.030;3.706;2022-08-19T06:28:44;20.80;99.90
56046;DHT22;41913;51.030;3.706;2022-08-19T06:31:17;21.00;99.90
56046;DHT22;41913;51.030;3.706;2022-08-19T06:33:44;21.30;99.90
56046;DHT22;41913;51.030;3.706;2022-08-19T06:36:25;21.50;99.90
56046;DHT22;41913;51.030;3.706;2022-08-19T06:38:58;21.70;99.90
56046;DHT22;41913;51.030;3.706;2022-08-19T06:41:26;21.90;99.90
56046;DHT22;41913;51.030;3.706;2022-08-19T06:43:53;21.90;99.90
56046;DHT22;41913;51.030;3.706;2022-08-19T06:46:21;22.10;99.90
56046;DHT22;41913;51.030;3.706;2022-08-19T06:48:47;22.20;99.90
56046;DHT22;41913;51.030;3.706;2022-08-19T06:51:20;22.20;99.90
56046;DHT22;41913;51.030;3.706;2022-08-19T06:53:50;22.20;99.90
56046;DHT22;41913;51.030;3.706;2022-08-19T06:56:22;22.20;99.90
56046;DHT22;41913;51.030;3.706;2022-08-19T06:58:51;22.10;99.90
56046;DHT22;41913;51.030;3.706;2022-08-19T07:01:20;22.00;99.90
56046;DHT22;41913;51.030;3.706;2022-08-19T07:03:47;21.80;99.90
56046;DHT22;41913;51.030;3.706;2022-08-19T07:06:15;21.80;99.90
56046;DHT22;41913;51.030;3.706;2022-08-19T07:08:46;21.70;99.90
56046;DHT22;41913;51.030;3.706;2022-08-19T07:11:14;21.80;99.90
56046;DHT22;41913;51.030;3.706;2022-08-19T07:13:46;21.90;99.90
56046;DHT22;41913;51.030;3.706;2022-08-19T07:16:17;21.90;99.90
56046;DHT22;41913;51.030;3.706;2022-08-19T07:18:47;21.90;99.90
56046;DHT22;41913;51.030;3.706;2022-08-19T07:21:26;21.80;99.90
56046;DHT22;41913;51.030;3.706;2022-08-19T07:23:56;21.90;99.90
56046;DHT22;41913;51.030;3.706;2022-08-19T07:26:30;21.90;99.90
56046;DHT22;41913;51.030;3.706;2022-08-19T07:28:59;22.00;99.90
56046;DHT22;41913;51.030;3.706;2022-08-19T07:31:28;21.80;99.90
56046;DHT22;41913;51.030;3.706;2022-08-19T07:33:57;21.90;99.90
56046;DHT22;41913;51.030;3.706;2022-08-19T07:36:28;21.90;99.90
56046;DHT22;41913;51.030;3.706;2022-08-19T07:39:05;21.90;99.90
56046;DHT22;41913;51.030;3.706;2022-08-19T07:41:31;22.00;99.90
56046;DHT22;41913;51.030;3.706;2022-08-19T07:43:58;22.10;99.90
56046;DHT22;41913;51.030;3.706;2022-08-19T07:46:36;22.20;99.90
56046;DHT22;41913;51.030;3.706;2022-08-19T07:49:06;22.20;99.90
56046;DHT22;41913;51.030;3.706;2022-08-19T07:51:33;22.10;99.90
56046;DHT22;41913;51.030;3.706;2022-08-19T07:53:59;21.90;99.90
56046;DHT22;41913;51.030;3.706;2022-08-19T07:56:25;21.90;99.90
56046;DHT22;41913;51.030;3.706;2022-08-19T07:58:51;21.90;99.90
56046;DHT22;41913;51.030;3.706;2022-08-19T08:01:21;21.90;99.90
56046;DHT22;41913;51.030;3.706;2022-08-19T08:03:54;21.70;99.90
56046;DHT22;41913;51.030;3.706;2022-08-19T08:06:41;21.70;99.90
56046;DHT22;41913;51.030;3.706;2022-08-19T08:09:33;21.70;99.90
56046;DHT22;41913;51.030;3.706;2022-08-19T08:14:51;21.50;99.90
56046;DHT22;41913;51.030;3.706;2022-08-19T08:17:20;21.60;99.90
56046;DHT22;41913;51.030;3.706;2022-08-19T08:19:50;21.70;99.90
56046;DHT22;41913;51.030;3.706;2022-08-19T08:22:21;21.70;99.90
56046;DHT22;41913;51.030;3.706;2022-08-19T08:25:21;21.70;99.90
56046;DHT22;41913;51.030;3.706;2022-08-19T08:27:48;21.80;99.90
56046;DHT22;41913;51.030;3.706;2022-08-19T08:33:09;22.00;99.90
56046;DHT22;41913;51.030;3.706;2022-08-19T08:35:40;22.00;99.90
56046;DHT22;41913;51.030;3.706;2022-08-19T08:45:03;22.10;99.90
56046;DHT22;41913;51.030;3.706;2022-08-19T08:47:35;22.20;99.90
56046;DHT22;41913;51.030;3.706;2022-08-19T08:50:27;22.40;99.90
56046;DHT22;41913;51.030;3.706;2022-08-19T08:53:14;22.50;99.90
56046;DHT22;41913;51.030;3.706;2022-08-19T08:56:02;22.70;99.90
56046;DHT22;41913;51.030;3.706;2022-08-19T09:01:55;22.80;99.90
56046;DHT22;41913;51.030;3.706;2022-08-19T09:04:21;22.70;99.90
56046;DHT22;41913;51.030;3.706;2022-08-19T09:09:37;22.80;99.90
56046;DHT22;41913;51.030;3.706;2022-08-19T09:15:05;22.70;99.90
56046;DHT22;41913;51.030;3.706;2022-08-19T09:17:32;22.50;99.90
56046;DHT22;41913;51.030;3.706;2022-08-19T09:20:20;22.50;99.90
56046;DHT22;41913;51.030;3.706;2022-08-19T09:22:48;22.70;99.90
56046;DHT22;41913;51.030;3.706;2022-08-19T09:25:19;22.80;99.90
56046;DHT22;41913;51.030;3.706;2022-08-19T09:27:53;23.00;99.90
56046;DHT22;41913;51.030;3.706;2022-08-19T09:30:24;23.30;99.90
56046;DHT22;41913;51.030;3.706;2022-08-19T09:32:53;23.40;99.90
56046;DHT22;41913;51.030;3.706;2022-08-19T09:35:22;23.50;99.90
56046;DHT22;41913;51.030;3.706;2022-08-19T09:37:49;23.80;99.90
56046;DHT22;41913;51.030;3.706;2022-08-19T09:40:17;24.10;99.90
56046;DHT22;41913;51.030;3.706;2022-08-19T09:42:44;24.40;99.90
56046;DHT22;41913;51.030;3.706;2022-08-19T09:45:18;24.70;99.90
56046;DHT22;41913;51.030;3.706;2022-08-19T09:47:52;25.00;99.90
56046;DHT22;41913;51.030;3.706;2022-08-19T09:50:19;25.20;99.90
56046;DHT22;41913;51.030;3.706;2022-08-19T09:52:51;25.30;99.90
56046;DHT22;41913;51.030;3.706;2022-08-19T09:55:17;25.30;99.90
56046;DHT22;41913;51.030;3.706;2022-08-19T09:57:46;25.40;99.90
56046;DHT22;41913;51.030;3.706;2022-08-19T10:00:13;25.30;99.90
56046;DHT22;41913;51.030;3.706;2022-08-19T10:02:40;25.20;99.90
56046;DHT22;41913;51.030;3.706;2022-08-19T10:05:12;24.80;99.90
56046;DHT22;41913;51.030;3.706;2022-08-19T10:07:57;24.60;99.90
56046;DHT22;41913;51.030;3.706;2022-08-19T10:10:25;24.50;99.90
56046;DHT22;41913;51.030;3.706;2022-08-19T10:12:52;24.50;99.90
56046;DHT22;41913;51.030;3.706;2022-08-19T10:15:21;24.30;99.90
56046;DHT22;41913;51.030;3.706;2022-08-19T10:17:49;24.50;99.90
56046;DHT22;41913;51.030;3.706;2022-08-19T10:20:15;24.60;99.90
56046;DHT22;41913;51.030;3.706;2022-08-19T10:22:41;24.70;99.90
56046;DHT22;41913;51.030;3.706;2022-08-19T10:25:08;25.00;99.90
56046;DHT22;41913;51.030;3.706;2022-08-19T10:27:35;25.20;99.90
56046;DHT22;41913;51.030;3.706;2022-08-19T10:30:03;25.40;99.90
56046;DHT22;41913;51.030;3.706;2022-08-19T10:32:30;25.70;99.90
56046;DHT22;41913;51.030;3.706;2022-08-19T10:35:01;25.70;99.90
56046;DHT22;41913;51.030;3.706;2022-08-19T10:37:29;25.80;99.90
56046;DHT22;41913;51.030;3.706;2022-08-19T10:39:56;25.90;99.90
56046;DHT22;41913;51.030;3.706;2022-08-19T10:42:24;25.70;99.90
56046;DHT22;41913;51.030;3.706;2022-08-19T10:44:50;25.60;99.90
56046;DHT22;41913;51.030;3.706;2022-08-19T10:47:16;25.40;99.90
56046;DHT22;41913;51.030;3.706;2022-08-19T10:49:44;25.10;99.90
56046;DHT22;41913;51.030;3.706;2022-08-19T10:52:30;25.00;99.90
56046;DHT22;41913;51.030;3.706;2022-08-19T10:55:04;24.70;99.90
56046;DHT22;41913;51.030;3.706;2022-08-19T10:57:52;24.50;99.90
56046;DHT22;41913;51.030;3.706;2022-08-19T11:00:21;24.50;99.90
56046;DHT22;41913;51.030;3.706;2022-08-19T11:02:51;24.50;99.90
56046;DHT22;41913;51.030;3.706;2022-08-19T11:05:19;24.60;99.90
56046;DHT22;41913;51.030;3.706;2022-08-19T11:07:45;24.30;99.90
56046;DHT22;41913;51.030;3.706;2022-08-19T11:10:14;24.50;99.90
56046;DHT22;41913;51.030;3.706;2022-08-19T11:12:43;24.70;99.90
56046;DHT22;41913;51.030;3.706;2022-08-19T11:15:10;24.90;99.90
56046;DHT22;41913;51.030;3.706;2022-08-19T11:17:39;24.70;99.90
56046;DHT22;41913;51.030;3.706;2022-08-19T11:20:13;24.80;99.90
56046;DHT22;41913;51.030;3.706;2022-08-19T11:22:40;24.90;99.90
56046;DHT22;41913;51.030;3.706;2022-08-19T11:25:10;24.90;99.90
56046;DHT22;41913;51.030;3.706;2022-08-19T11:27:41;24.80;99.90
56046;DHT22;41913;51.030;3.706;2022-08-19T11:30:11;24.80;99.90
56046;DHT22;41913;51.030;3.706;2022-08-19T11:32:37;24.90;99.90
56046;DHT22;41913;51.030;3.706;2022-08-19T11:35:03;25.10;99.90
56046;DHT22;41913;51.030;3.706;2022-08-19T11:37:32;25.20;99.90
56046;DHT22;41913;51.030;3.706;2022-08-19T11:40:06;25.00;99.90
56046;DHT22;41913;51.030;3.706;2022-08-19T11:42:33;24.90;99.90
56046;DHT22;41913;51.030;3.706;2022-08-19T11:45:19;25.00;99.90
56046;DHT22;41913;51.030;3.706;2022-08-19T11:47:46;25.20;99.90
56046;DHT22;41913;51.030;3.706;2022-08-19T11:50:14;25.20;99.90
56046;DHT22;41913;51.030;3.706;2022-08-19T11:52:42;25.30;99.90
56046;DHT22;41913;51.030;3.706;2022-08-19T11:55:13;25.50;99.90
56046;DHT22;41913;51.030;3.706;2022-08-19T11:57:45;25.40;99.90
56046;DHT22;41913;51.030;3.706;2022-08-19T12:00:13;25.30;99.90
56046;DHT22;41913;51.030;3.706;2022-08-19T12:02:40;25.50;99.90
56046;DHT22;41913;51.030;3.706;2022-08-19T12:05:08;25.90;99.90
56046;DHT22;41913;51.030;3.706;2022-08-19T12:07:36;26.20;99.90
56046;DHT22;41913;51.030;3.706;2022-08-19T12:10:03;26.30;99.90
56046;DHT22;41913;51.030;3.706;2022-08-19T12:12:32;26.30;99.90
56046;DHT22;41913;51.030;3.706;2022-08-19T12:14:58;26.20;99.90
56046;DHT22;41913;51.030;3.706;2022-08-19T12:17:46;26.20;99.90
56046;DHT22;41913;51.030;3.706;2022-08-19T12:20:13;26.30;99.90
56046;DHT22;41913;51.030;3.706;2022-08-19T12:22:45;26.20;99.90
56046;DHT22;41913;51.030;3.706;2022-08-19T12:25:14;26.20;99.90
56046;DHT22;41913;51.030;3.706;2022-08-19T12:27:44;26.00;99.90
56046;DHT22;41913;51.030;3.706;2022-08-19T12:30:12;26.00;99.90
56046;DHT22;41913;51.030;3.706;2022-08-19T12:32:38;26.20;99.90
56046;DHT22;41913;51.030;3.706;2022-08-19T12:35:06;26.20;99.90
56046;DHT22;41913;51.030;3.706;2022-08-19T12:37:32;26.00;99.90
56046;DHT22;41913;51.030;3.706;2022-08-19T12:39:59;25.80;99.90
56046;DHT22;41913;51.030;3.706;2022-08-19T12:42:27;25.40;99.90
56046;DHT22;41913;51.030;3.706;2022-08-19T12:44:54;24.90;99.90
56046;DHT22;41913;51.030;3.706;2022-08-19T12:47:20;25.10;99.90
56046;DHT22;41913;51.030;3.706;2022-08-19T12:49:49;25.00;99.90
56046;DHT22;41913;51.030;3.706;2022-08-19T12:52:18;25.40;99.90
56046;DHT22;41913;51.030;3.706;2022-08-19T12:54:47;25.80;99.90
56046;DHT22;41913;51.030;3.706;2022-08-19T12:57:15;26.00;99.90
56046;DHT22;41913;51.030;3.706;2022-08-19T12:59:44;26.30;99.90
56046;DHT22;41913;51.030;3.706;2022-08-19T13:02:10;26.60;99.90
56046;DHT22;41913;51.030;3.706;2022-08-19T13:04:38;27.00;99.90
56046;DHT22;41913;51.030;3.706;2022-08-19T13:07:07;27.00;99.90
56046;DHT22;41913;51.030;3.706;2022-08-19T13:09:34;27.40;99.90
56046;DHT22;41913;51.030;3.706;2022-08-19T13:12:23;27.30;99.90
56046;DHT22;41913;51.030;3.706;2022-08-19T13:14:52;27.10;99.90
56046;DHT22;41913;51.030;3.706;2022-08-19T13:17:21;27.00;99.90
56046;DHT22;41913;51.030;3.706;2022-08-19T13:19:52;26.00;99.90
56046;DHT22;41913;51.030;3.706;2022-08-19T13:22:20;24.70;99.90
56046;DHT22;41913;51.030;3.706;2022-08-19T13:24:47;23.60;99.90
56046;DHT22;41913;51.030;3.706;2022-08-19T13:27:14;23.00;99.90
56046;DHT22;41913;51.030;3.706;2022-08-19T13:29:48;22.40;99.90
56046;DHT22;41913;51.030;3.706;2022-08-19T13:32:47;22.30;99.90
56046;DHT22;41913;51.030;3.706;2022-08-19T13:35:32;22.20;99.90
56046;DHT22;41913;51.030;3.706;2022-08-19T13:37:58;22.30;99.90
56046;DHT22;41913;51.030;3.706;2022-08-19T13:40:25;22.50;99.90
56046;DHT22;41913;51.030;3.706;2022-08-19T13:42:53;22.60;99.90
56046;DHT22;41913;51.030;3.706;2022-08-19T13:45:21;22.90;99.90
56046;DHT22;41913;51.030;3.706;2022-08-19T13:47:55;23.20;99.90
56046;DHT22;41913;51.030;3.706;2022-08-19T13:50:30;23.50;99.90
56046;DHT22;41913;51.030;3.706;2022-08-19T13:53:01;23.60;99.90
56046;DHT22;41913;51.030;3.706;2022-08-19T13:55:30;24.00;99.90
56046;DHT22;41913;51.030;3.706;2022-08-19T13:57:59;24.30;99.90
56046;DHT22;41913;51.030;3.706;2022-08-19T14:00:37;24.50;99.90
56046;DHT22;41913;51.030;3.706;2022-08-19T14:03:04;24.70;99.90
56046;DHT22;41913;51.030;3.706;2022-08-19T14:05:31;24.90;99.90
56046;DHT22;41913;51.030;3.706;2022-08-19T14:11:18;25.40;99.90
56046;DHT22;41913;51.030;3.706;2022-08-19T14:13:44;25.80;99.90
56046;DHT22;41913;51.030;3.706;2022-08-19T14:16:12;26.10;99.90
56046;DHT22;41913;51.030;3.706;2022-08-19T14:18:39;25.80;99.90
56046;DHT22;41913;51.030;3.706;2022-08-19T14:21:06;26.00;99.90
56046;DHT22;41913;51.030;3.706;2022-08-19T14:23:33;26.10;99.90
56046;DHT22;41913;51.030;3.706;2022-08-19T14:26:12;26.10;99.90
56046;DHT22;41913;51.030;3.706;2022-08-19T14:28:41;26.20;99.90
56046;DHT22;41913;51.030;3.706;2022-08-19T14:31:12;26.30;99.90
56046;DHT22;41913;51.030;3.706;2022-08-19T14:33:40;26.30;99.90
56046;DHT22;41913;51.030;3.706;2022-08-19T14:36:06;26.50;99.90
56046;DHT22;41913;51.030;3.706;2022-08-19T14:38:32;26.60;99.90
56046;DHT22;41913;51.030;3.706;2022-08-19T14:43:38;27.00;99.90
56046;DHT22;41913;51.030;3.706;2022-08-19T14:46:14;27.10;99.90
56046;DHT22;41913;51.030;3.706;2022-08-19T14:48:44;27.40;99.90
56046;DHT22;41913;51.030;3.706;2022-08-19T14:51:10;26.70;99.90
56046;DHT22;41913;51.030;3.706;2022-08-19T14:53:37;26.30;99.90
56046;DHT22;41913;51.030;3.706;2022-08-19T14:56:11;26.10;99.90
56046;DHT22;41913;51.030;3.706;2022-08-19T14:58:40;26.00;99.90
56046;DHT22;41913;51.030;3.706;2022-08-19T15:01:07;26.00;99.90
56046;DHT22;41913;51.030;3.706;2022-08-19T15:03:35;25.90;99.90
56046;DHT22;41913;51.030;3.706;2022-08-19T15:06:02;25.80;99.90
56046;DHT22;41913;51.030;3.706;2022-08-19T15:08:31;26.00;99.90
56046;DHT22;41913;51.030;3.706;2022-08-19T15:10:59;26.10;99.90
56046;DHT22;41913;51.030;3.706;2022-08-19T15:13:28;26.00;99.90
56046;DHT22;41913;51.030;3.706;2022-08-19T15:15:55;26.20;99.90
56046;DHT22;41913;51.030;3.706;2022-08-19T15:18:23;26.30;99.90
56046;DHT22;41913;51.030;3.706;2022-08-19T15:20:51;26.40;99.90
56046;DHT22;41913;51.030;3.706;2022-08-19T15:23:17;26.40;99.90
56046;DHT22;41913;51.030;3.706;2022-08-19T15:25:48;26.50;99.90
56046;DHT22;41913;51.030;3.706;2022-08-19T15:28:13;26.20;99.90
56046;DHT22;41913;51.030;3.706;2022-08-19T15:30:42;26.20;99.90
56046;DHT22;41913;51.030;3.706;2022-08-19T15:33:11;26.10;99.90
56046;DHT22;41913;51.030;3.706;2022-08-19T15:35:42;26.20;99.90
56046;DHT22;41913;51.030;3.706;2022-08-19T15:38:08;26.30;99.90
56046;DHT22;41913;51.030;3.706;2022-08-19T15:40:34;26.50;99.90
56046;DHT22;41913;51.030;3.706;2022-08-19T15:43:01;26.30;99.90
56046;DHT22;41913;51.030;3.706;2022-08-19T15:45:27;26.10;99.90
56046;DHT22;41913;51.030;3.706;2022-08-19T15:48:01;26.10;99.90
56046;DHT22;41913;51.030;3.706;2022-08-19T15:50:34;26.20;99.90
56046;DHT22;41913;51.030;3.706;2022-08-19T15:53:06;26.00;99.90
56046;DHT22;41913;51.030;3.706;2022-08-19T15:55:44;26.20;99.90
56046;DHT22;41913;51.030;3.706;2022-08-19T15:58:14;26.10;99.90
56046;DHT22;41913;51.030;3.706;2022-08-19T16:01:03;25.70;99.90
56046;DHT22;41913;51.030;3.706;2022-08-19T16:03:49;25.20;99.90
56046;DHT22;41913;51.030;3.706;2022-08-19T16:06:37;25.00;99.90
56046;DHT22;41913;51.030;3.706;2022-08-19T16:09:04;25.10;99.90
56046;DHT22;41913;51.030;3.706;2022-08-19T16:11:33;25.40;99.90
56046;DHT22;41913;51.030;3.706;2022-08-19T16:14:00;25.60;99.90
56046;DHT22;41913;51.030;3.706;2022-08-19T16:16:30;26.00;99.90